createdAt,value
2024-03-02T00:00:42.628Z,55.10
2024-03-02T00:03:15.586Z,70.00
2024-03-02T00:05:43.098Z,58.90
2024-03-02T00:08:10.534Z,47.60
2024-03-02T00:10:41.479Z,49.60
2024-03-02T00:13:13.132Z,46.90
2024-03-02T00:15:48.420Z,50.00
2024-03-02T00:18:19.748Z,46.20
2024-03-02T00:20:47.196Z,41.60
2024-03-02T00:23:18.367Z,44.40
2024-03-02T00:25:48.143Z,45.70
2024-03-02T00:28:36.773Z,46.00
2024-03-02T00:31:09.183Z,42.50
2024-03-02T00:33:38.570Z,42.30
2024-03-02T00:36:06.483Z,40.00
2024-03-02T00:38:34.790Z,44.20
2024-03-02T00:41:08.715Z,54.40
2024-03-02T00:43:53.515Z,45.50
2024-03-02T00:46:20.990Z,49.20
2024-03-02T00:48:59.307Z,45.00
2024-03-02T00:51:28.063Z,45.10
2024-03-02T00:53:58.997Z,44.40
2024-03-02T00:56:27.414Z,37.20
2024-03-02T00:58:54.951Z,38.60
2024-03-02T01:01:22.760Z,40.00
2024-03-02T01:03:50.714Z,41.90
2024-03-02T01:06:18.439Z,44.00
2024-03-02T01:08:46.245Z,42.10
2024-03-02T01:11:13.754Z,40.80
2024-03-02T01:13:41.217Z,39.70
2024-03-02T01:16:08.675Z,37.20
2024-03-02T01:18:36.085Z,47.00
2024-03-02T01:21:04.664Z,42.80
2024-03-02T01:23:32.085Z,48.70
2024-03-02T01:25:59.563Z,48.10
2024-03-02T01:28:26.939Z,46.20
2024-03-02T01:30:54.422Z,46.10
2024-03-02T01:33:22.595Z,49.00
2024-03-02T01:35:50.188Z,46.00
2024-03-02T01:38:17.950Z,56.80
2024-03-02T01:40:48.135Z,49.00
2024-03-02T01:43:15.484Z,48.20
2024-03-02T01:45:43.027Z,41.50
2024-03-02T01:48:10.591Z,43.60
2024-03-02T01:50:38.217Z,59.00
2024-03-02T01:53:05.590Z,43.20
2024-03-02T01:55:34.382Z,44.50
2024-03-02T01:58:01.865Z,40.10
2024-03-02T02:00:29.616Z,40.60
2024-03-02T02:02:57.128Z,49.40
2024-03-02T02:05:24.592Z,48.00
2024-03-02T02:07:52.037Z,56.20
2024-03-02T02:10:19.456Z,46.90
2024-03-02T02:12:46.880Z,55.70
2024-03-02T02:15:30.742Z,52.00
2024-03-02T02:17:59.238Z,50.30
2024-03-02T02:20:27.082Z,58.30
2024-03-02T02:22:58.196Z,53.80
2024-03-02T02:25:25.680Z,56.00
2024-03-02T02:27:53.574Z,46.80
2024-03-02T02:30:22.543Z,52.70
2024-03-02T02:32:50.291Z,44.90
2024-03-02T02:35:17.786Z,46.90
2024-03-02T02:37:46.464Z,47.10
2024-03-02T02:40:14.746Z,47.20
2024-03-02T02:42:42.185Z,51.50
2024-03-02T02:45:09.725Z,51.80
2024-03-02T02:47:37.158Z,42.70
2024-03-02T02:50:05.634Z,49.10
2024-03-02T02:52:37.931Z,55.20
2024-03-02T02:55:06.606Z,50.70
2024-03-02T02:57:39.104Z,46.00
2024-03-02T03:00:11.654Z,53.20
2024-03-02T03:02:40.045Z,52.60
2024-03-02T03:05:08.282Z,50.00
2024-03-02T03:07:36.050Z,50.70
2024-03-02T03:10:04.935Z,52.10
2024-03-02T03:12:35.233Z,50.90
2024-03-02T03:15:04.193Z,51.20
2024-03-02T03:17:31.704Z,51.40
2024-03-02T03:19:59.072Z,55.80
2024-03-02T03:22:26.522Z,56.60
2024-03-02T03:27:47.357Z,67.00
2024-03-02T03:30:15.564Z,61.80
2024-03-02T03:32:42.932Z,58.40
2024-03-02T03:35:10.452Z,61.40
2024-03-02T03:37:37.984Z,59.20
2024-03-02T03:40:12.617Z,57.70
2024-03-02T03:42:40.808Z,55.00
2024-03-02T03:45:09.039Z,59.40
2024-03-02T03:47:36.611Z,50.50
2024-03-02T03:50:08.147Z,65.90
2024-03-02T03:52:35.649Z,52.30
2024-03-02T03:55:03.119Z,57.50
2024-03-02T03:57:30.551Z,55.40
2024-03-02T03:59:58.033Z,59.00
2024-03-02T04:02:26.086Z,59.60
2024-03-02T04:04:53.438Z,55.10
2024-03-02T04:07:20.791Z,56.00
2024-03-02T04:09:48.253Z,50.10
2024-03-02T04:12:15.968Z,55.20
2024-03-02T04:14:44.016Z,53.20
2024-03-02T04:17:11.632Z,59.50
2024-03-02T04:19:39.106Z,48.60
2024-03-02T04:22:15.177Z,43.80
2024-03-02T04:24:46.662Z,50.50
2024-03-02T04:27:14.076Z,49.90
2024-03-02T04:29:41.489Z,52.60
2024-03-02T04:32:09.002Z,44.00
2024-03-02T04:34:36.548Z,49.50
2024-03-02T04:37:03.987Z,45.00
2024-03-02T04:39:31.581Z,53.60
2024-03-02T04:41:59.691Z,40.80
2024-03-02T04:44:27.300Z,55.00
2024-03-02T04:46:54.678Z,55.20
2024-03-02T04:49:22.224Z,55.30
2024-03-02T04:51:49.780Z,53.20
2024-03-02T04:54:17.519Z,56.00
2024-03-02T04:56:46.148Z,54.10
2024-03-02T04:59:13.708Z,61.40
2024-03-02T05:01:41.139Z,49.80
2024-03-02T05:04:08.805Z,51.30
2024-03-02T05:06:36.329Z,49.40
2024-03-02T05:09:03.823Z,48.50
2024-03-02T05:11:40.179Z,51.00
2024-03-02T05:14:07.959Z,49.80
2024-03-02T05:16:36.539Z,50.90
2024-03-02T05:19:03.984Z,48.20
2024-03-02T05:21:31.704Z,49.90
2024-03-02T05:23:59.231Z,53.80
2024-03-02T05:26:26.781Z,62.40
2024-03-02T05:28:54.418Z,47.40
2024-03-02T05:31:21.872Z,57.20
2024-03-02T05:33:50.330Z,42.90
2024-03-02T05:36:19.619Z,50.30
2024-03-02T05:38:47.041Z,49.20
2024-03-02T05:41:14.391Z,48.60
2024-03-02T05:43:41.968Z,47.90
2024-03-02T05:46:09.422Z,48.40
2024-03-02T05:48:36.872Z,52.10
2024-03-02T05:51:04.829Z,53.70
2024-03-02T05:53:32.551Z,49.50
2024-03-02T05:56:00.885Z,48.80
2024-03-02T05:58:48.828Z,51.80
2024-03-02T06:01:16.376Z,48.90
2024-03-02T06:03:44.153Z,50.60
2024-03-02T06:06:11.887Z,48.10
2024-03-02T06:08:39.409Z,53.50
2024-03-02T06:11:06.813Z,49.60
2024-03-02T06:13:34.315Z,54.60
2024-03-02T06:16:01.907Z,62.60
2024-03-02T06:18:29.482Z,57.40
2024-03-02T06:20:56.977Z,61.20
2024-03-02T06:23:24.339Z,54.90
2024-03-02T06:25:51.683Z,53.90
2024-03-02T06:28:19.186Z,55.90
2024-03-02T06:30:46.688Z,57.30
2024-03-02T06:33:14.321Z,57.30
2024-03-02T06:35:42.361Z,61.80
2024-03-02T06:38:09.797Z,61.10
2024-03-02T06:40:40.895Z,53.20
2024-03-02T06:43:08.303Z,55.50
2024-03-02T06:45:36.001Z,60.60
2024-03-02T06:48:03.716Z,54.70
2024-03-02T06:50:31.280Z,52.20
2024-03-02T06:52:58.751Z,51.80
2024-03-02T06:55:26.286Z,57.00
2024-03-02T06:57:53.852Z,54.40
2024-03-02T07:00:24.207Z,56.30
2024-03-02T07:02:51.777Z,59.10
2024-03-02T07:05:19.261Z,51.50
2024-03-02T07:07:46.612Z,46.30
2024-03-02T07:10:14.016Z,44.70
2024-03-02T07:12:41.405Z,48.90
2024-03-02T07:15:19.879Z,48.80
2024-03-02T07:17:47.437Z,54.30
2024-03-02T07:20:14.937Z,42.80
2024-03-02T07:22:43.984Z,36.50
2024-03-02T07:27:45.149Z,43.00
2024-03-02T07:30:15.444Z,39.20
2024-03-02T07:32:47.068Z,43.70
2024-03-02T07:35:15.362Z,36.60
2024-03-02T07:37:43.510Z,47.80
2024-03-02T07:40:15.408Z,42.30
2024-03-02T07:42:42.953Z,42.40
2024-03-02T07:45:10.966Z,43.60
2024-03-02T07:47:38.477Z,45.10
2024-03-02T07:50:10.423Z,48.20
2024-03-02T07:52:37.820Z,46.90
2024-03-02T07:55:06.336Z,41.30
2024-03-02T07:57:33.873Z,41.00
2024-03-02T08:00:01.260Z,43.60
2024-03-02T08:02:28.645Z,39.70
2024-03-02T08:04:55.997Z,50.50
2024-03-02T08:07:23.480Z,37.60
2024-03-02T08:09:50.845Z,36.90
2024-03-02T08:12:19.708Z,46.20
2024-03-02T08:14:47.292Z,41.00
2024-03-02T08:17:14.723Z,40.20
2024-03-02T08:19:42.891Z,40.50
2024-03-02T08:22:10.429Z,43.20
2024-03-02T08:24:37.871Z,51.50
2024-03-02T08:27:05.494Z,36.00
2024-03-02T08:29:33.013Z,41.30
2024-03-02T08:32:00.376Z,43.90
2024-03-02T08:34:27.775Z,44.70
2024-03-02T08:36:55.687Z,37.60
2024-03-02T08:39:23.542Z,38.10
2024-03-02T08:41:51.471Z,35.60
2024-03-02T08:44:19.015Z,39.20
2024-03-02T08:46:46.397Z,37.30
2024-03-02T08:49:14.182Z,35.10
2024-03-02T08:51:41.684Z,39.30
2024-03-02T08:54:09.800Z,39.90
2024-03-02T08:56:37.420Z,39.60
2024-03-02T08:59:04.900Z,29.90
2024-03-02T09:01:32.526Z,31.90
2024-03-02T09:04:00.187Z,29.00
2024-03-02T09:06:27.732Z,35.60
2024-03-02T09:08:55.181Z,33.90
2024-03-02T09:11:22.624Z,31.10
2024-03-02T09:13:50.020Z,41.40
2024-03-02T09:16:17.382Z,31.40
2024-03-02T09:18:44.745Z,27.50
2024-03-02T09:21:12.230Z,31.00
2024-03-02T09:23:41.215Z,32.70
2024-03-02T09:26:08.554Z,30.00
2024-03-02T09:28:36.026Z,28.50
2024-03-02T09:31:03.670Z,32.80
2024-03-02T09:33:31.543Z,28.50
2024-03-02T09:35:59.246Z,27.40
2024-03-02T09:38:26.702Z,26.30
2024-03-02T09:40:54.144Z,27.70
2024-03-02T09:43:21.673Z,29.30
2024-03-02T09:45:49.144Z,33.50
2024-03-02T09:48:19.717Z,30.60
2024-03-02T09:50:47.872Z,33.70
2024-03-02T09:53:15.225Z,29.10
2024-03-02T09:55:45.014Z,33.30
2024-03-02T09:58:12.496Z,31.80
2024-03-02T10:00:40.058Z,29.60
2024-03-02T10:03:13.632Z,20.00
2024-03-02T10:05:41.108Z,31.60
2024-03-02T10:08:08.568Z,31.90
2024-03-02T10:10:45.981Z,26.10
2024-03-02T10:13:14.219Z,35.60
2024-03-02T10:15:42.482Z,35.70
2024-03-02T10:18:14.031Z,29.60
2024-03-02T10:20:41.704Z,47.00
2024-03-02T10:23:16.408Z,31.90
2024-03-02T10:25:51.768Z,33.20
2024-03-02T10:28:25.861Z,30.90
2024-03-02T10:30:54.497Z,31.80
2024-03-02T10:33:22.453Z,27.70
2024-03-02T10:35:51.074Z,30.60
2024-03-02T10:38:18.772Z,30.10
2024-03-02T10:40:52.597Z,35.20
2024-03-02T10:43:20.187Z,35.30
2024-03-02T10:45:49.721Z,32.10
2024-03-02T10:48:17.323Z,40.30
2024-03-02T10:50:44.922Z,37.80
2024-03-02T10:53:12.307Z,33.30
2024-03-02T10:55:40.441Z,36.40
2024-03-02T10:58:08.660Z,31.50
2024-03-02T11:00:36.247Z,32.40
2024-03-02T11:03:07.681Z,31.70
2024-03-02T11:05:37.588Z,30.90
2024-03-02T11:08:09.468Z,27.40
2024-03-02T11:10:49.756Z,25.90
2024-03-02T11:13:17.364Z,32.90
2024-03-02T11:15:45.303Z,28.20
2024-03-02T11:18:13.105Z,26.10
2024-03-02T11:20:41.195Z,25.70
2024-03-02T11:23:09.569Z,29.70
2024-03-02T11:25:37.325Z,32.10
2024-03-02T11:28:11.253Z,24.20
2024-03-02T11:30:39.439Z,22.80
2024-03-02T11:33:12.307Z,26.00
2024-03-02T11:35:46.789Z,22.10
2024-03-02T11:38:14.388Z,24.00
2024-03-02T11:40:42.031Z,21.90
2024-03-02T11:43:09.629Z,23.00
2024-03-02T11:45:41.196Z,25.80
2024-03-02T11:48:09.767Z,27.90
2024-03-02T11:50:41.373Z,28.10
2024-03-02T11:53:10.607Z,27.10
2024-03-02T11:55:38.549Z,27.00
2024-03-02T11:58:06.327Z,21.50
2024-03-02T12:00:34.123Z,25.20
2024-03-02T12:03:03.013Z,20.60
2024-03-02T12:05:30.549Z,20.70
2024-03-02T12:07:58.952Z,26.00
2024-03-02T12:10:27.043Z,21.10
2024-03-02T12:13:12.870Z,20.40
2024-03-02T12:15:41.503Z,21.80
2024-03-02T12:18:09.220Z,24.10
2024-03-02T12:20:36.879Z,22.20
2024-03-02T12:23:05.662Z,20.80
2024-03-02T12:25:34.660Z,25.50
2024-03-02T12:28:03.064Z,26.00
2024-03-02T12:30:31.849Z,21.90
2024-03-02T12:33:00.213Z,26.10
2024-03-02T12:35:27.867Z,26.10
2024-03-02T12:37:55.401Z,21.60
2024-03-02T12:40:24.439Z,22.10
2024-03-02T12:42:52.893Z,21.80
2024-03-02T12:45:27.501Z,21.20
2024-03-02T12:47:55.233Z,25.30
2024-03-02T12:50:22.944Z,26.10
2024-03-02T12:52:54.472Z,22.20
2024-03-02T12:55:23.518Z,28.20
2024-03-02T12:57:54.859Z,23.40
2024-03-02T13:00:23.579Z,21.70
2024-03-02T13:02:52.822Z,24.00
2024-03-02T13:05:21.392Z,20.80
2024-03-02T13:07:50.029Z,29.60
2024-03-02T13:10:18.307Z,22.20
2024-03-02T13:12:45.886Z,22.20
2024-03-02T13:15:16.538Z,24.90
2024-03-02T13:17:47.470Z,24.40
2024-03-02T13:20:15.911Z,23.20
2024-03-02T13:22:43.770Z,23.20
2024-03-02T13:25:14.122Z,24.20
2024-03-02T13:27:41.703Z,26.90
2024-03-02T13:30:10.188Z,29.60
2024-03-02T13:32:38.030Z,26.10
2024-03-02T13:35:06.393Z,25.70
2024-03-02T13:37:33.921Z,24.30
2024-03-02T13:40:01.544Z,25.90
2024-03-02T13:42:29.319Z,24.00
2024-03-02T13:44:57.023Z,23.10
2024-03-02T13:47:24.465Z,26.50
2024-03-02T13:49:51.902Z,21.20
2024-03-02T13:52:19.280Z,27.20
2024-03-02T13:54:47.941Z,27.50
2024-03-02T13:57:15.696Z,26.20
2024-03-02T13:59:44.252Z,27.30
2024-03-02T14:02:12.009Z,27.50
2024-03-02T14:04:40.128Z,23.50
2024-03-02T14:07:09.009Z,21.00
2024-03-02T14:09:37.639Z,27.10
2024-03-02T14:12:06.881Z,27.60
2024-03-02T14:14:34.594Z,24.40
2024-03-02T14:17:05.233Z,22.00
2024-03-02T14:19:33.066Z,22.20
2024-03-02T14:22:00.825Z,24.80
2024-03-02T14:24:30.819Z,21.80
2024-03-02T14:27:10.915Z,22.80
2024-03-02T14:29:47.858Z,20.70
2024-03-02T14:32:15.376Z,26.90
2024-03-02T14:34:42.908Z,24.00
2024-03-02T14:37:10.554Z,22.70
2024-03-02T14:39:38.059Z,27.50
2024-03-02T14:42:05.946Z,24.60
2024-03-02T14:44:33.709Z,21.40
2024-03-02T14:47:05.539Z,23.30
2024-03-02T14:49:35.103Z,21.50
2024-03-02T14:52:02.721Z,23.20
2024-03-02T14:54:30.576Z,28.20
2024-03-02T14:56:58.508Z,22.60
2024-03-02T14:59:25.922Z,29.40
2024-03-02T15:01:53.486Z,28.20
2024-03-02T15:04:22.417Z,26.00
2024-03-02T15:06:50.220Z,25.10
2024-03-02T15:09:37.232Z,16.90
2024-03-02T15:12:05.178Z,23.30
2024-03-02T15:14:32.729Z,20.10
2024-03-02T15:17:00.550Z,22.30
2024-03-02T15:19:28.052Z,22.00
2024-03-02T15:21:55.658Z,16.50
2024-03-02T15:24:23.211Z,16.20
2024-03-02T15:26:50.853Z,15.50
2024-03-02T15:29:18.292Z,16.90
2024-03-02T15:31:45.777Z,16.70
2024-03-02T15:34:13.357Z,16.70
2024-03-02T15:36:40.941Z,22.40
2024-03-02T15:39:10.251Z,23.30
2024-03-02T15:41:37.941Z,17.00
2024-03-02T15:45:48.083Z,18.00
2024-03-02T15:48:15.556Z,18.40
2024-03-02T15:50:42.998Z,17.90
2024-03-02T15:53:10.698Z,15.60
2024-03-02T15:55:38.790Z,17.20
2024-03-02T15:58:07.252Z,15.40
2024-03-02T16:00:36.691Z,13.40
2024-03-02T16:03:04.743Z,15.90
2024-03-02T16:05:32.168Z,14.90
2024-03-02T16:08:00.263Z,21.90
2024-03-02T16:10:28.181Z,17.50
2024-03-02T16:12:57.103Z,23.10
2024-03-02T16:15:24.747Z,17.10
2024-03-02T16:17:52.312Z,18.80
2024-03-02T16:20:19.935Z,15.20
2024-03-02T16:22:47.460Z,21.10
2024-03-02T16:25:15.821Z,21.90
2024-03-02T16:27:44.799Z,19.10
2024-03-02T16:30:13.722Z,20.60
2024-03-02T16:32:41.217Z,21.90
2024-03-02T16:35:08.869Z,22.20
2024-03-02T16:37:36.428Z,22.00
2024-03-02T16:40:04.778Z,19.30
2024-03-02T16:42:32.293Z,16.70
2024-03-02T16:45:00.011Z,21.30
2024-03-02T16:47:27.781Z,19.70
2024-03-02T16:49:58.331Z,30.10
2024-03-02T16:52:29.312Z,28.10
2024-03-02T16:54:58.539Z,24.60
2024-03-02T16:57:27.366Z,24.70
2024-03-02T16:59:54.892Z,25.40
2024-03-02T17:02:22.339Z,25.50
2024-03-02T17:04:49.805Z,27.00
2024-03-02T17:07:17.630Z,24.60
2024-03-02T17:09:45.412Z,24.10
2024-03-02T17:12:13.255Z,22.20
2024-03-02T17:14:40.873Z,26.40
2024-03-02T17:17:08.250Z,27.90
2024-03-02T17:19:35.638Z,31.50
2024-03-02T17:22:03.274Z,27.10
2024-03-02T17:24:30.893Z,20.20
2024-03-02T17:26:59.699Z,28.40
2024-03-02T17:29:27.397Z,25.30
2024-03-02T17:31:57.155Z,24.70
2024-03-02T17:34:25.131Z,25.30
2024-03-02T17:36:52.698Z,26.20
2024-03-02T17:39:20.375Z,24.10
2024-03-02T17:41:47.857Z,25.20
2024-03-02T17:44:16.526Z,27.00
2024-03-02T17:46:44.496Z,27.00
2024-03-02T17:49:12.109Z,26.00
2024-03-02T17:51:39.880Z,19.70
2024-03-02T17:54:07.487Z,23.80
2024-03-02T17:56:34.904Z,23.90
2024-03-02T17:59:02.496Z,25.80
2024-03-02T18:01:30.160Z,24.60
2024-03-02T18:03:57.695Z,23.50
2024-03-02T18:06:25.380Z,22.70
2024-03-02T18:08:52.982Z,22.40
2024-03-02T18:11:20.605Z,21.90
2024-03-02T18:13:48.371Z,30.40
2024-03-02T18:16:16.577Z,25.50
2024-03-02T18:18:44.286Z,24.30
2024-03-02T18:21:12.612Z,23.00
2024-03-02T18:23:40.000Z,28.30
2024-03-02T18:26:07.509Z,26.50
2024-03-02T18:28:35.841Z,22.30
2024-03-02T18:31:05.383Z,26.80
2024-03-02T18:33:33.603Z,27.50
2024-03-02T18:36:01.570Z,32.50
2024-03-02T18:38:29.020Z,26.00
2024-03-02T18:40:56.456Z,24.90
2024-03-02T18:43:23.911Z,26.60
2024-03-02T18:45:51.420Z,28.70
2024-03-02T18:48:19.014Z,25.50
2024-03-02T18:50:46.564Z,31.20
2024-03-02T18:53:14.697Z,23.00
2024-03-02T18:55:42.184Z,24.50
2024-03-02T18:58:10.061Z,28.70
2024-03-02T19:00:37.982Z,35.10
2024-03-02T19:03:07.240Z,28.40
2024-03-02T19:05:36.412Z,29.50
2024-03-02T19:08:03.935Z,29.50
2024-03-02T19:10:31.421Z,27.90
2024-03-02T19:12:59.191Z,27.40
2024-03-02T19:15:26.618Z,29.20
2024-03-02T19:17:54.503Z,28.40
2024-03-02T19:20:23.163Z,31.80
2024-03-02T19:22:52.543Z,18.90
2024-03-02T19:25:21.678Z,14.20
2024-03-02T19:27:49.223Z,30.10
2024-03-02T19:30:16.635Z,32.10
2024-03-02T19:32:44.306Z,47.20
2024-03-02T19:35:13.241Z,46.70
2024-03-02T19:37:42.351Z,40.70
2024-03-02T19:40:13.685Z,48.80
2024-03-02T19:42:41.617Z,45.20
2024-03-02T19:45:09.896Z,34.80
2024-03-02T19:47:37.458Z,46.70
2024-03-02T19:50:05.962Z,26.10
2024-03-02T19:52:33.763Z,26.80
2024-03-02T19:55:02.934Z,41.40
2024-03-02T19:57:31.032Z,42.10
2024-03-02T19:59:58.588Z,42.80
2024-03-02T20:02:28.413Z,38.00
2024-03-02T20:04:56.249Z,32.60
2024-03-02T20:07:23.786Z,29.50
2024-03-02T20:09:51.929Z,32.90
2024-03-02T20:12:19.881Z,35.50
2024-03-02T20:14:47.372Z,35.80
2024-03-02T20:17:16.007Z,37.60
2024-03-02T20:19:43.411Z,29.90
2024-03-02T20:22:10.947Z,33.10
2024-03-02T20:24:38.915Z,31.00
2024-03-02T20:27:06.471Z,27.90
2024-03-02T20:29:34.054Z,26.20
2024-03-02T20:32:02.010Z,30.40
2024-03-02T20:34:29.454Z,29.70
2024-03-02T20:36:57.815Z,34.50
2024-03-02T20:39:25.397Z,29.30
2024-03-02T20:41:52.937Z,26.20
2024-03-02T20:44:23.522Z,28.60
2024-03-02T20:46:54.076Z,30.60
2024-03-02T20:49:21.746Z,22.50
2024-03-02T20:51:49.436Z,27.60
2024-03-02T20:54:17.109Z,26.40
2024-03-02T20:56:44.694Z,24.40
2024-03-02T20:59:12.210Z,26.70
2024-03-02T21:01:39.700Z,27.90
2024-03-02T21:04:07.349Z,28.20
2024-03-02T21:06:34.868Z,23.30
2024-03-02T21:09:02.613Z,24.80
2024-03-02T21:11:30.165Z,29.10
2024-03-02T21:13:57.747Z,23.90
2024-03-02T21:16:25.178Z,22.30
2024-03-02T21:18:55.111Z,28.90
2024-03-02T21:21:22.733Z,22.80
2024-03-02T21:23:50.117Z,22.80
2024-03-02T21:26:17.631Z,23.30
2024-03-02T21:28:45.046Z,29.30
2024-03-02T21:31:18.559Z,23.80
2024-03-02T21:33:46.453Z,28.20
2024-03-02T21:36:13.982Z,24.20
2024-03-02T21:38:41.402Z,22.80
2024-03-02T21:41:08.812Z,25.60
2024-03-02T21:43:36.956Z,20.60
2024-03-02T21:46:04.993Z,34.50
2024-03-02T21:48:32.533Z,21.60
2024-03-02T21:51:00.243Z,26.20
2024-03-02T21:53:27.611Z,24.00
2024-03-02T21:55:55.428Z,26.20
2024-03-02T21:58:22.847Z,28.30
2024-03-02T22:00:50.337Z,33.10
2024-03-02T22:03:17.822Z,24.80
2024-03-02T22:05:45.142Z,25.60
2024-03-02T22:08:12.640Z,22.50
2024-03-02T22:10:39.987Z,22.30
2024-03-02T22:13:07.418Z,28.50
2024-03-02T22:15:35.005Z,25.70
2024-03-02T22:18:04.539Z,23.40
2024-03-02T22:20:32.165Z,32.50
2024-03-02T22:22:59.598Z,28.40
2024-03-02T22:25:26.956Z,28.40
2024-03-02T22:27:57.228Z,31.50
2024-03-02T22:30:24.778Z,26.90
2024-03-02T22:32:52.371Z,31.40
2024-03-02T22:35:23.137Z,36.30
2024-03-02T22:37:51.610Z,34.20
2024-03-02T22:40:19.189Z,33.90
2024-03-02T22:42:46.767Z,25.90
2024-03-02T22:45:14.776Z,26.50
2024-03-02T22:47:42.166Z,29.80
2024-03-02T22:50:09.850Z,34.40
2024-03-02T22:52:37.300Z,29.30
2024-03-02T22:55:05.490Z,33.60
2024-03-02T22:57:32.947Z,34.90
2024-03-02T23:00:00.365Z,34.00
2024-03-02T23:02:27.779Z,37.70
2024-03-02T23:04:55.209Z,31.80
2024-03-02T23:07:24.085Z,44.30
2024-03-02T23:09:51.777Z,45.60
2024-03-02T23:12:19.473Z,39.50
2024-03-02T23:14:46.917Z,43.20
2024-03-02T23:17:14.248Z,34.80
2024-03-02T23:19:43.023Z,35.40
2024-03-02T23:22:11.627Z,38.50
2024-03-02T23:24:39.137Z,33.40
2024-03-02T23:27:06.744Z,36.00
2024-03-02T23:29:34.292Z,28.90
2024-03-02T23:32:01.658Z,32.90
2024-03-02T23:34:29.410Z,33.90
2024-03-02T23:36:56.907Z,29.80
2024-03-02T23:39:43.088Z,29.50
2024-03-02T23:42:10.508Z,35.90
2024-03-02T23:44:37.896Z,34.50
2024-03-02T23:47:07.134Z,27.60
2024-03-02T23:49:34.767Z,30.00
2024-03-02T23:52:02.316Z,33.20
2024-03-02T23:54:29.873Z,27.40
2024-03-02T23:56:57.279Z,30.20
2024-03-02T23:59:24.684Z,27.40
